Terminal Aerodrome Forecast
Issued by NWS Portland, ME

Home | Current Version | Previous Version | Text Only | Print | Product List | Glossary On
Versions: 1 2 3 4 5 6 7 8 9 10 11 12 13 14 15 16 17 18 19
989
FTUS41 KGYX 162322
TAFPWM
TAF
KPWM 162322Z 1700/1724 31006KT P6SM SKC
     FM171500 28010KT P6SM FEW250
     FM171800 23011G17KT P6SM SKC=

USA.gov is the U.S. government's official web portal to all federal, state and local government web resources and services.